createdAt,value
2019-03-19T00:00:14.078Z,115.65
2019-03-19T00:02:42.946Z,115.10
2019-03-19T00:05:11.944Z,111.08
2019-03-19T00:07:40.854Z,113.55
2019-03-19T00:10:10.291Z,112.32
2019-03-19T00:12:39.270Z,111.92
2019-03-19T00:15:08.505Z,114.97
2019-03-19T00:17:37.412Z,113.90
2019-03-19T00:20:06.468Z,114.60
2019-03-19T00:22:35.319Z,113.65
2019-03-19T00:25:04.453Z,118.77
2019-03-19T00:27:33.309Z,116.93
2019-03-19T00:30:02.166Z,112.37
2019-03-19T00:32:31.115Z,117.80
2019-03-19T00:35:00.133Z,111.95
2019-03-19T00:37:28.993Z,117.97
2019-03-19T00:39:57.833Z,114.45
2019-03-19T00:42:26.709Z,117.30
2019-03-19T00:44:55.568Z,116.37
2019-03-19T00:47:24.489Z,116.45
2019-03-19T00:49:53.338Z,117.50
2019-03-19T00:52:22.197Z,114.25
2019-03-19T00:54:51.087Z,116.55
2019-03-19T00:57:20.458Z,115.92
2019-03-19T00:59:49.308Z,118.10
2019-03-19T01:02:18.228Z,117.72
2019-03-19T01:04:47.372Z,117.62
2019-03-19T01:07:16.269Z,119.40
2019-03-19T01:09:45.256Z,114.35
2019-03-19T01:12:14.101Z,118.28
2019-03-19T01:14:43.222Z,117.28
2019-03-19T01:17:12.053Z,120.90
2019-03-19T01:19:40.929Z,115.97
2019-03-19T01:22:09.797Z,120.65
2019-03-19T01:24:38.624Z,120.67
2019-03-19T01:27:09.985Z,117.10
2019-03-19T01:29:38.838Z,120.57
2019-03-19T01:32:08.300Z,119.42
2019-03-19T01:34:37.170Z,120.20
2019-03-19T01:37:06.086Z,118.97
2019-03-19T01:39:34.964Z,121.05
2019-03-19T01:42:03.965Z,118.93
2019-03-19T01:44:32.799Z,122.00
2019-03-19T01:47:01.666Z,115.88
2019-03-19T01:49:30.501Z,119.17
2019-03-19T01:51:59.641Z,120.97
2019-03-19T01:54:28.476Z,117.95
2019-03-19T01:56:57.369Z,116.12
2019-03-19T01:59:28.785Z,116.37
2019-03-19T02:01:57.673Z,114.95
2019-03-19T02:04:26.512Z,120.10
2019-03-19T02:06:55.380Z,115.40
2019-03-19T02:09:24.295Z,114.62
2019-03-19T02:11:53.157Z,118.57
2019-03-19T02:14:22.072Z,115.22
2019-03-19T02:16:51.055Z,117.90
2019-03-19T02:19:19.960Z,116.17
2019-03-19T02:22:08.002Z,119.75
2019-03-19T02:24:36.868Z,113.65
2019-03-19T02:27:05.831Z,115.67
2019-03-19T02:29:34.697Z,111.97
2019-03-19T02:32:03.612Z,116.95
2019-03-19T02:34:32.458Z,119.35
2019-03-19T02:37:01.338Z,114.75
2019-03-19T02:39:30.186Z,116.53
2019-03-19T02:41:59.059Z,117.42
2019-03-19T02:44:27.973Z,115.25
2019-03-19T02:46:56.863Z,115.72
2019-03-19T02:49:25.752Z,113.77
2019-03-19T02:51:54.781Z,115.95
2019-03-19T02:54:23.646Z,113.50
2019-03-19T02:56:52.589Z,112.80
2019-03-19T02:59:21.445Z,117.82
2019-03-19T03:01:50.299Z,116.40
2019-03-19T03:04:19.163Z,118.20
2019-03-19T03:06:48.111Z,118.00
2019-03-19T03:09:17.001Z,120.82
2019-03-19T03:11:45.918Z,116.47
2019-03-19T03:14:14.787Z,116.40
2019-03-19T03:16:43.857Z,116.33
2019-03-19T03:19:12.855Z,116.08
2019-03-19T03:21:41.776Z,114.40
2019-03-19T03:24:10.687Z,117.08
2019-03-19T03:26:47.707Z,117.77
2019-03-19T03:29:10.132Z,117.05
2019-03-19T03:31:39.043Z,116.85
2019-03-19T03:34:07.946Z,114.32
2019-03-19T03:36:36.933Z,116.05
2019-03-19T03:39:07.786Z,116.22
2019-03-19T03:41:37.294Z,120.40
2019-03-19T03:44:06.297Z,117.70
2019-03-19T03:46:35.323Z,116.85
2019-03-19T03:49:04.326Z,120.53
2019-03-19T03:51:33.312Z,120.42
2019-03-19T03:54:02.190Z,120.45
2019-03-19T03:56:31.141Z,122.50
2019-03-19T03:59:01.341Z,120.15
2019-03-19T04:01:30.510Z,121.97
2019-03-19T04:03:59.448Z,124.82
2019-03-19T04:06:28.364Z,121.50
2019-03-19T04:08:59.644Z,124.85
2019-03-19T04:11:28.579Z,124.85
2019-03-19T04:13:57.649Z,125.65
2019-03-19T04:16:26.543Z,129.10
2019-03-19T04:18:55.462Z,127.35
2019-03-19T04:21:24.342Z,131.03
2019-03-19T04:23:53.197Z,127.05
2019-03-19T04:26:22.237Z,126.62
2019-03-19T04:28:52.585Z,125.90
2019-03-19T04:31:21.439Z,127.87
2019-03-19T04:33:50.320Z,125.42
2019-03-19T04:36:19.246Z,127.53
2019-03-19T04:38:48.105Z,123.78
2019-03-19T04:41:16.940Z,128.42
2019-03-19T04:43:45.881Z,127.90
2019-03-19T04:46:14.733Z,127.50
2019-03-19T04:48:43.618Z,127.40
2019-03-19T04:51:12.552Z,126.82
2019-03-19T04:53:41.394Z,128.60
2019-03-19T04:56:10.350Z,132.22
2019-03-19T04:58:39.277Z,124.65
2019-03-19T05:01:08.166Z,131.37
2019-03-19T05:03:37.028Z,132.05
2019-03-19T05:06:06.021Z,131.75
2019-03-19T05:08:34.972Z,133.95
2019-03-19T05:11:03.903Z,125.10
2019-03-19T05:13:32.792Z,129.65
2019-03-19T05:16:01.676Z,127.38
2019-03-19T05:18:31.505Z,132.60
2019-03-19T05:21:00.577Z,124.30
2019-03-19T05:23:29.420Z,130.25
2019-03-19T05:25:58.391Z,124.70
2019-03-19T05:28:27.259Z,129.45
2019-03-19T05:30:56.161Z,127.72
2019-03-19T05:33:25.142Z,125.85
2019-03-19T05:35:54.083Z,131.45
2019-03-19T05:38:22.938Z,124.05
2019-03-19T05:40:51.816Z,131.03
2019-03-19T05:43:20.674Z,130.95
2019-03-19T05:45:49.649Z,129.57
2019-03-19T05:48:18.709Z,134.90
2019-03-19T05:50:47.711Z,138.70
2019-03-19T05:53:16.629Z,134.37
2019-03-19T05:55:45.508Z,134.75
2019-03-19T05:58:14.534Z,132.10
2019-03-19T06:00:43.401Z,129.90
2019-03-19T06:03:12.305Z,133.37
2019-03-19T06:05:41.260Z,131.75
2019-03-19T06:08:10.130Z,129.65
2019-03-19T06:10:39.055Z,127.95
2019-03-19T06:13:07.981Z,142.85
2019-03-19T06:15:36.941Z,136.62
2019-03-19T06:18:06.018Z,136.43
2019-03-19T06:20:34.878Z,135.85
2019-03-19T06:23:03.882Z,136.90
2019-03-19T06:25:32.752Z,136.25
2019-03-19T06:28:01.630Z,136.12
2019-03-19T06:30:30.569Z,136.82
2019-03-19T06:32:59.434Z,139.05
2019-03-19T06:35:28.361Z,137.15
2019-03-19T06:37:57.300Z,132.40
2019-03-19T06:40:26.255Z,141.77
2019-03-19T06:42:55.137Z,138.97
2019-03-19T06:45:24.136Z,139.97
2019-03-19T06:47:53.123Z,132.15
2019-03-19T06:50:22.141Z,141.03
2019-03-19T06:52:51.156Z,136.65
2019-03-19T06:55:20.170Z,132.18
2019-03-19T06:57:49.211Z,134.82
2019-03-19T07:00:18.730Z,132.72
2019-03-19T07:02:47.774Z,137.45
2019-03-19T07:05:17.106Z,138.25
2019-03-19T07:07:46.146Z,140.05
2019-03-19T07:10:15.429Z,152.35
2019-03-19T07:12:44.449Z,149.70
2019-03-19T07:15:14.350Z,154.55
2019-03-19T07:17:44.529Z,158.07
2019-03-19T07:20:14.368Z,166.50
2019-03-19T07:22:43.430Z,174.02
2019-03-19T07:25:12.921Z,176.18
2019-03-19T07:27:41.873Z,181.60
2019-03-19T07:30:13.210Z,182.05
2019-03-19T07:32:42.147Z,185.75
2019-03-19T07:35:11.172Z,198.85
2019-03-19T07:37:40.046Z,193.65
2019-03-19T07:40:10.022Z,198.80
2019-03-19T07:42:39.029Z,207.40
2019-03-19T07:45:10.369Z,198.63
2019-03-19T07:47:39.325Z,197.57
2019-03-19T07:50:10.082Z,196.57
2019-03-19T07:52:39.016Z,214.33
2019-03-19T07:55:08.013Z,200.67
2019-03-19T07:57:36.953Z,210.63
2019-03-19T08:00:06.913Z,192.37
2019-03-19T08:02:35.801Z,199.10
2019-03-19T08:05:05.284Z,206.20
2019-03-19T08:07:34.244Z,195.53
2019-03-19T08:10:03.169Z,209.27
2019-03-19T08:12:33.643Z,203.10
2019-03-19T08:15:02.813Z,213.17
2019-03-19T08:17:31.681Z,214.12
2019-03-19T08:20:00.558Z,217.43
2019-03-19T08:22:29.481Z,206.55
2019-03-19T08:24:58.412Z,214.43
2019-03-19T08:27:27.272Z,218.57
2019-03-19T08:29:56.136Z,207.50
2019-03-19T08:32:24.981Z,217.40
2019-03-19T08:34:53.917Z,214.37
2019-03-19T08:37:22.838Z,222.83
2019-03-19T08:39:51.672Z,222.67
2019-03-19T08:42:20.597Z,211.40
2019-03-19T08:44:49.446Z,202.20
2019-03-19T08:47:18.982Z,195.13
2019-03-19T08:49:47.824Z,203.00
2019-03-19T08:52:16.708Z,193.30
2019-03-19T08:54:45.569Z,204.17
2019-03-19T08:57:14.416Z,196.13
2019-03-19T08:59:43.263Z,191.00
2019-03-19T09:02:13.693Z,199.23
2019-03-19T09:04:42.588Z,189.40
2019-03-19T09:07:11.467Z,200.83
2019-03-19T09:09:40.682Z,215.60
2019-03-19T09:12:09.539Z,224.50
2019-03-19T09:14:38.388Z,230.93
2019-03-19T09:17:07.247Z,237.43
2019-03-19T09:19:36.108Z,244.67
2019-03-19T09:22:05.118Z,263.23
2019-03-19T09:24:33.985Z,272.30
2019-03-19T09:27:02.926Z,298.30
2019-03-19T09:29:31.865Z,284.53
2019-03-19T09:32:00.761Z,299.03
2019-03-19T09:34:29.619Z,287.13
2019-03-19T09:36:58.482Z,281.03
2019-03-19T09:39:27.433Z,273.23
2019-03-19T09:41:58.638Z,273.67
2019-03-19T09:44:27.510Z,266.37
2019-03-19T09:46:56.433Z,257.50
2019-03-19T09:49:25.417Z,237.00
2019-03-19T09:51:54.331Z,227.67
2019-03-19T09:54:23.265Z,213.47
2019-03-19T09:56:52.104Z,203.87
2019-03-19T09:59:27.053Z,202.83
2019-03-19T10:01:51.633Z,193.97
2019-03-19T10:04:20.661Z,192.13
2019-03-19T10:06:49.616Z,191.12
2019-03-19T10:09:18.513Z,193.30
2019-03-19T10:11:47.381Z,192.90
2019-03-19T10:14:16.245Z,199.20
2019-03-19T10:16:45.195Z,192.90
2019-03-19T10:19:14.119Z,193.13
2019-03-19T10:21:42.974Z,207.27
2019-03-19T10:24:11.859Z,196.20
2019-03-19T10:26:41.413Z,196.50
2019-03-19T10:29:10.269Z,202.83
2019-03-19T10:31:39.148Z,211.97
2019-03-19T10:34:08.025Z,222.70
2019-03-19T10:36:36.920Z,211.53
2019-03-19T10:39:09.204Z,231.53
2019-03-19T10:41:38.251Z,237.27
2019-03-19T10:44:07.181Z,240.40
2019-03-19T10:46:36.128Z,251.73
2019-03-19T10:49:05.129Z,260.17
2019-03-19T10:51:35.217Z,250.30
2019-03-19T10:54:04.507Z,240.03
2019-03-19T10:56:33.537Z,231.67
2019-03-19T10:59:02.486Z,214.80
2019-03-19T11:01:31.547Z,208.17
2019-03-19T11:04:00.540Z,198.03
2019-03-19T11:06:29.474Z,187.75
2019-03-19T11:08:58.355Z,184.87
2019-03-19T11:11:27.229Z,181.07
2019-03-19T11:13:56.194Z,195.15
2019-03-19T11:16:25.045Z,180.37
2019-03-19T11:18:55.534Z,182.22
2019-03-19T11:21:24.472Z,182.27
2019-03-19T11:23:53.317Z,191.33
2019-03-19T11:26:22.193Z,204.17
2019-03-19T11:28:51.144Z,199.70
2019-03-19T11:31:20.027Z,219.50
2019-03-19T11:33:48.972Z,226.03
2019-03-19T11:36:17.880Z,239.37
2019-03-19T11:38:46.884Z,250.40
2019-03-19T11:41:15.753Z,254.90
2019-03-19T11:43:44.692Z,277.07
2019-03-19T11:46:13.722Z,278.70
2019-03-19T11:48:42.765Z,287.90
2019-03-19T11:51:11.789Z,297.77
2019-03-19T11:53:40.772Z,301.60
2019-03-19T11:56:09.782Z,294.03
2019-03-19T11:58:38.669Z,317.97
2019-03-19T12:01:07.798Z,336.57
2019-03-19T12:03:36.747Z,331.87
2019-03-19T12:06:05.792Z,308.97
2019-03-19T12:08:34.671Z,309.57
2019-03-19T12:11:03.628Z,303.60
2019-03-19T12:13:36.775Z,280.90
2019-03-19T12:16:06.146Z,267.97
2019-03-19T12:18:35.050Z,253.63
2019-03-19T12:21:04.003Z,241.67
2019-03-19T12:23:32.883Z,242.93
2019-03-19T12:26:01.841Z,246.77
2019-03-19T12:28:39.307Z,232.20
2019-03-19T12:31:01.401Z,226.60
2019-03-19T12:33:40.373Z,235.50
2019-03-19T12:36:01.177Z,217.93
2019-03-19T12:38:30.068Z,230.17
2019-03-19T12:40:58.966Z,222.07
2019-03-19T12:43:27.836Z,226.30
2019-03-19T12:45:56.776Z,217.70
2019-03-19T12:48:25.891Z,215.00
2019-03-19T12:50:54.789Z,218.87
2019-03-19T12:53:24.134Z,235.57
2019-03-19T12:55:53.278Z,224.10
2019-03-19T12:58:23.360Z,209.70
2019-03-19T13:00:52.384Z,214.43
2019-03-19T13:03:21.289Z,217.67
2019-03-19T13:05:50.257Z,208.60
2019-03-19T13:08:20.358Z,213.00
2019-03-19T13:10:49.564Z,205.17
2019-03-19T13:13:18.480Z,202.93
2019-03-19T13:15:47.423Z,201.60
2019-03-19T13:18:16.385Z,199.50
2019-03-19T13:20:45.349Z,188.07
2019-03-19T13:23:14.209Z,189.00
2019-03-19T13:25:43.154Z,194.10
2019-03-19T13:28:11.998Z,188.20
2019-03-19T13:30:45.287Z,188.32
2019-03-19T13:33:11.541Z,187.22
2019-03-19T13:35:40.734Z,188.25
2019-03-19T13:38:09.705Z,191.40
2019-03-19T13:40:38.593Z,194.57
2019-03-19T13:43:07.509Z,189.93
2019-03-19T13:45:36.436Z,196.30
2019-03-19T13:48:08.040Z,192.93
2019-03-19T13:50:39.341Z,203.27
2019-03-19T13:53:08.365Z,209.53
2019-03-19T13:55:37.501Z,205.13
2019-03-19T13:58:06.698Z,216.30
2019-03-19T14:00:37.738Z,219.37
2019-03-19T14:03:06.929Z,234.80
2019-03-19T14:05:35.961Z,242.87
2019-03-19T14:08:05.018Z,234.73
2019-03-19T14:10:34.241Z,231.13
2019-03-19T14:13:03.208Z,256.30
2019-03-19T14:15:32.138Z,237.37
2019-03-19T14:18:01.180Z,258.67
2019-03-19T14:20:30.125Z,228.70
2019-03-19T14:22:59.548Z,210.97
2019-03-19T14:25:28.497Z,247.70
2019-03-19T14:27:57.447Z,235.07
2019-03-19T14:30:26.573Z,212.00
2019-03-19T14:32:55.649Z,195.50
2019-03-19T14:35:24.636Z,219.10
2019-03-19T14:37:53.584Z,199.00
2019-03-19T14:40:22.807Z,200.77
2019-03-19T14:42:51.744Z,199.13
2019-03-19T14:45:20.752Z,195.43
2019-03-19T14:47:49.859Z,200.73
2019-03-19T14:50:18.836Z,204.87
2019-03-19T14:52:47.807Z,203.53
2019-03-19T14:55:16.901Z,225.23
2019-03-19T14:57:46.053Z,201.20
2019-03-19T15:00:15.580Z,197.37
2019-03-19T15:02:44.612Z,202.93
2019-03-19T15:05:14.260Z,194.37
2019-03-19T15:07:43.790Z,207.70
2019-03-19T15:10:14.379Z,206.47
2019-03-19T15:12:43.414Z,211.43
2019-03-19T15:15:14.326Z,194.93
2019-03-19T15:17:43.487Z,210.67
2019-03-19T15:20:14.755Z,210.63
2019-03-19T15:22:43.737Z,195.50
2019-03-19T15:25:12.764Z,204.20
2019-03-19T15:27:41.719Z,203.10
2019-03-19T15:30:11.193Z,207.03
2019-03-19T15:32:40.231Z,197.47
2019-03-19T15:35:09.963Z,189.00
2019-03-19T15:37:38.971Z,189.10
2019-03-19T15:40:10.105Z,193.90
2019-03-19T15:42:39.213Z,192.90
2019-03-19T15:45:09.230Z,185.73
2019-03-19T15:47:38.166Z,191.00
2019-03-19T15:50:09.003Z,183.40
2019-03-19T15:52:38.039Z,185.95
2019-03-19T15:55:07.186Z,181.30
2019-03-19T15:57:36.237Z,191.62
2019-03-19T16:00:07.728Z,192.43
2019-03-19T16:02:36.681Z,195.07
2019-03-19T16:05:06.708Z,194.37
2019-03-19T16:07:35.857Z,196.17
2019-03-19T16:10:05.456Z,188.63
2019-03-19T16:12:34.432Z,186.82
2019-03-19T16:15:03.513Z,187.18
2019-03-19T16:17:32.481Z,181.67
2019-03-19T16:20:01.501Z,179.47
2019-03-19T16:22:30.589Z,181.15
2019-03-19T16:24:59.548Z,186.73
2019-03-19T16:27:28.453Z,174.05
2019-03-19T16:29:57.447Z,173.15
2019-03-19T16:32:26.554Z,177.80
2019-03-19T16:34:55.738Z,171.00
2019-03-19T16:37:24.734Z,172.60
2019-03-19T16:39:53.662Z,169.55
2019-03-19T16:42:22.735Z,164.72
2019-03-19T16:44:51.709Z,167.55
2019-03-19T16:47:20.672Z,158.65
2019-03-19T16:49:49.555Z,160.22
2019-03-19T16:52:18.630Z,153.15
2019-03-19T16:54:47.610Z,157.90
2019-03-19T16:57:16.641Z,157.88
2019-03-19T16:59:45.721Z,158.40
2019-03-19T17:02:23.207Z,168.90
2019-03-19T17:04:52.485Z,168.37
2019-03-19T17:07:21.787Z,161.47
2019-03-19T17:09:50.730Z,160.12
2019-03-19T17:12:19.613Z,165.57
2019-03-19T17:14:48.563Z,160.57
2019-03-19T17:17:17.579Z,155.12
2019-03-19T17:19:46.706Z,151.85
2019-03-19T17:22:15.645Z,159.63
2019-03-19T17:24:44.674Z,155.40
2019-03-19T17:27:13.820Z,153.42
2019-03-19T17:29:42.684Z,152.68
2019-03-19T17:32:13.342Z,143.65
2019-03-19T17:34:42.731Z,146.55
2019-03-19T17:37:11.914Z,144.00
2019-03-19T17:39:42.490Z,147.13
2019-03-19T17:42:11.891Z,149.38
2019-03-19T17:44:41.808Z,142.47
2019-03-19T17:47:16.182Z,144.37
2019-03-19T17:49:45.427Z,151.63
2019-03-19T17:52:14.595Z,148.50
2019-03-19T17:54:45.974Z,148.53
2019-03-19T17:57:14.990Z,149.42
2019-03-19T17:59:44.050Z,146.87
2019-03-19T18:02:23.360Z,142.80
2019-03-19T18:04:43.738Z,240.52
2019-03-19T18:07:13.559Z,164.80
2019-03-19T18:09:42.541Z,156.37
2019-03-19T18:12:11.566Z,144.50
2019-03-19T18:14:40.487Z,140.70
2019-03-19T18:17:09.446Z,144.72
2019-03-19T18:19:38.371Z,147.80
2019-03-19T18:22:07.288Z,141.18
2019-03-19T18:24:36.335Z,141.90
2019-03-19T18:27:06.137Z,137.25
2019-03-19T18:29:35.112Z,138.60
2019-03-19T18:32:04.336Z,140.82
2019-03-19T18:34:33.679Z,141.82
2019-03-19T18:37:02.647Z,136.20
2019-03-19T18:39:31.514Z,130.78
2019-03-19T18:42:00.678Z,132.18
2019-03-19T18:44:29.659Z,131.82
2019-03-19T18:46:58.800Z,136.80
2019-03-19T18:49:27.801Z,132.35
2019-03-19T18:51:56.767Z,130.35
2019-03-19T18:54:27.390Z,130.93
2019-03-19T18:56:56.627Z,132.18
2019-03-19T18:59:26.490Z,132.43
2019-03-19T19:02:00.224Z,131.70
2019-03-19T19:04:30.714Z,130.03
2019-03-19T19:06:59.729Z,133.22
2019-03-19T19:09:29.864Z,129.78
2019-03-19T19:11:58.987Z,128.68
2019-03-19T19:14:28.012Z,124.53
2019-03-19T19:16:57.158Z,126.07
2019-03-19T19:19:29.348Z,123.30
2019-03-19T19:21:58.747Z,131.60
2019-03-19T19:24:27.721Z,124.62
2019-03-19T19:26:56.810Z,123.87
2019-03-19T19:29:25.851Z,124.00
2019-03-19T19:31:54.913Z,128.15
2019-03-19T19:34:25.450Z,131.12
2019-03-19T19:36:54.488Z,131.67
2019-03-19T19:39:23.398Z,122.40
2019-03-19T19:41:52.469Z,128.02
2019-03-19T19:44:21.522Z,118.53
2019-03-19T19:46:50.634Z,123.45
2019-03-19T19:49:20.480Z,122.50
2019-03-19T19:51:49.454Z,120.57
2019-03-19T19:54:18.495Z,121.42
2019-03-19T19:56:47.626Z,116.82
2019-03-19T19:59:16.605Z,120.25
2019-03-19T20:01:45.602Z,125.07
2019-03-19T20:04:14.502Z,125.67
2019-03-19T20:06:43.707Z,122.25
2019-03-19T20:09:14.169Z,122.78
2019-03-19T20:11:43.304Z,122.90
2019-03-19T20:14:13.170Z,120.40
2019-03-19T20:16:42.186Z,119.17
2019-03-19T20:19:11.275Z,123.50
2019-03-19T20:21:40.196Z,125.45
2019-03-19T20:24:09.196Z,126.10
2019-03-19T20:26:38.154Z,142.13
2019-03-19T20:29:07.920Z,123.38
2019-03-19T20:31:36.802Z,119.75
2019-03-19T20:34:06.262Z,116.45
2019-03-19T20:36:35.323Z,115.47
2019-03-19T20:39:07.073Z,123.07
2019-03-19T20:41:36.045Z,118.08
2019-03-19T20:44:05.113Z,123.25
2019-03-19T20:46:34.065Z,119.37
2019-03-19T20:49:03.062Z,116.37
2019-03-19T20:51:31.910Z,126.45
2019-03-19T20:54:00.877Z,119.87
2019-03-19T20:56:29.770Z,116.95
2019-03-19T20:58:58.821Z,118.42
2019-03-19T21:01:27.804Z,120.00
2019-03-19T21:03:56.825Z,120.65
2019-03-19T21:06:25.824Z,118.00
2019-03-19T21:08:54.689Z,114.28
2019-03-19T21:11:23.873Z,119.82
2019-03-19T21:13:52.753Z,114.17
2019-03-19T21:16:21.625Z,119.47
2019-03-19T21:18:50.582Z,116.90
2019-03-19T21:21:19.451Z,118.93
2019-03-19T21:23:48.356Z,112.45
2019-03-19T21:26:17.257Z,113.68
2019-03-19T21:28:46.251Z,114.88
2019-03-19T21:31:15.258Z,114.75
2019-03-19T21:33:51.285Z,110.37
2019-03-19T21:36:15.009Z,113.95
2019-03-19T21:38:43.911Z,114.80
2019-03-19T21:41:12.846Z,120.13
2019-03-19T21:43:41.801Z,128.47
2019-03-19T21:46:10.817Z,124.50
2019-03-19T21:48:39.792Z,119.70
2019-03-19T21:51:08.761Z,116.45
2019-03-19T21:53:37.641Z,124.65
2019-03-19T21:56:06.701Z,118.47
2019-03-19T21:58:35.584Z,118.25
2019-03-19T22:01:04.580Z,120.70
2019-03-19T22:03:33.534Z,116.55
2019-03-19T22:06:02.548Z,117.22
2019-03-19T22:08:31.453Z,117.28
2019-03-19T22:11:00.343Z,116.37
2019-03-19T22:13:29.273Z,118.65
2019-03-19T22:15:58.171Z,115.55
2019-03-19T22:18:27.089Z,113.00
2019-03-19T22:20:55.955Z,122.05
2019-03-19T22:23:24.800Z,123.25
2019-03-19T22:25:53.679Z,125.38
2019-03-19T22:28:22.565Z,122.78
2019-03-19T22:30:51.588Z,118.65
2019-03-19T22:33:23.054Z,118.20
2019-03-19T22:35:51.413Z,116.77
2019-03-19T22:38:20.276Z,119.28
2019-03-19T22:40:52.619Z,117.20
2019-03-19T22:43:21.474Z,119.13
2019-03-19T22:45:50.365Z,116.53
2019-03-19T22:48:20.753Z,122.25
2019-03-19T22:50:52.227Z,114.85
2019-03-19T22:53:21.269Z,115.40
2019-03-19T22:56:07.672Z,115.70
2019-03-19T22:58:42.648Z,121.22
2019-03-19T23:01:16.345Z,121.28
2019-03-19T23:03:49.542Z,116.20
2019-03-19T23:06:22.446Z,115.30
2019-03-19T23:08:51.903Z,117.37
2019-03-19T23:11:21.211Z,123.30
2019-03-19T23:13:51.922Z,121.70
2019-03-19T23:16:21.322Z,118.85
2019-03-19T23:18:50.265Z,116.67
2019-03-19T23:21:19.209Z,117.42
2019-03-19T23:23:48.067Z,118.93
2019-03-19T23:26:17.012Z,117.22
2019-03-19T23:28:45.897Z,121.72
2019-03-19T23:31:14.840Z,120.55
2019-03-19T23:33:43.784Z,119.53
2019-03-19T23:36:12.662Z,119.70
2019-03-19T23:38:41.532Z,121.57
2019-03-19T23:41:10.554Z,124.72
2019-03-19T23:43:39.415Z,120.65
2019-03-19T23:46:08.354Z,117.00
2019-03-19T23:48:37.326Z,117.15
2019-03-19T23:51:06.186Z,122.67
2019-03-19T23:53:35.049Z,121.07
2019-03-19T23:56:04.153Z,118.42
2019-03-19T23:58:33.101Z,122.50
